sensor_id;sensor_type;location;lat;lon;timestamp;pressure;altitude;pressure_sealevel;temperature;humidity
8894;BME280;4483;48.622;9.230;2022-09-01T00:01:15;98090.00;;;14.62;100.00
8894;BME280;4483;48.622;9.230;2022-09-01T00:03:45;98096.81;;;14.65;100.00
8894;BME280;4483;48.622;9.230;2022-09-01T00:06:13;98086.84;;;14.57;100.00
8894;BME280;4483;48.622;9.230;2022-09-01T00:08:40;98089.75;;;14.51;100.00
8894;BME280;4483;48.622;9.230;2022-09-01T00:11:07;98096.00;;;14.47;100.00
8894;BME280;4483;48.622;9.230;2022-09-01T00:13:35;98095.50;;;14.41;100.00
8894;BME280;4483;48.622;9.230;2022-09-01T00:16:02;98095.72;;;14.36;100.00
8894;BME280;4483;48.622;9.230;2022-09-01T00:18:30;98097.41;;;14.37;100.00
8894;BME280;4483;48.622;9.230;2022-09-01T00:20:57;98093.03;;;14.38;100.00
8894;BME280;4483;48.622;9.230;2022-09-01T00:23:25;98096.47;;;14.38;100.00
8894;BME280;4483;48.622;9.230;2022-09-01T00:25:52;98099.22;;;14.35;100.00
8894;BME280;4483;48.622;9.230;2022-09-01T00:28:19;98090.69;;;14.33;100.00
8894;BME280;4483;48.622;9.230;2022-09-01T00:30:47;98089.94;;;14.31;100.00
8894;BME280;4483;48.622;9.230;2022-09-01T00:33:13;98083.78;;;14.34;100.00
8894;BME280;4483;48.622;9.230;2022-09-01T00:35:40;98083.81;;;14.32;100.00
8894;BME280;4483;48.622;9.230;2022-09-01T00:38:07;98089.19;;;14.29;100.00
8894;BME280;4483;48.622;9.230;2022-09-01T00:40:34;98086.81;;;14.25;100.00
8894;BME280;4483;48.622;9.230;2022-09-01T00:43:10;98080.00;;;14.22;100.00
8894;BME280;4483;48.622;9.230;2022-09-01T00:45:37;98086.19;;;14.20;100.00
8894;BME280;4483;48.622;9.230;2022-09-01T00:48:05;98087.09;;;14.19;100.00
8894;BME280;4483;48.622;9.230;2022-09-01T00:50:32;98087.25;;;14.15;100.00
8894;BME280;4483;48.622;9.230;2022-09-01T00:52:58;98089.09;;;14.13;100.00
8894;BME280;4483;48.622;9.230;2022-09-01T00:55:27;98090.94;;;14.11;100.00
8894;BME280;4483;48.622;9.230;2022-09-01T00:57:55;98086.72;;;14.09;100.00
8894;BME280;4483;48.622;9.230;2022-09-01T01:00:28;98078.28;;;14.05;100.00
8894;BME280;4483;48.622;9.230;2022-09-01T01:02:55;98087.72;;;14.06;100.00
8894;BME280;4483;48.622;9.230;2022-09-01T01:05:28;98084.31;;;14.06;100.00
8894;BME280;4483;48.622;9.230;2022-09-01T01:07:58;98075.97;;;13.99;100.00
8894;BME280;4483;48.622;9.230;2022-09-01T01:10:29;98081.09;;;14.01;100.00
8894;BME280;4483;48.622;9.230;2022-09-01T01:12:57;98083.75;;;13.99;100.00
8894;BME280;4483;48.622;9.230;2022-09-01T01:15:27;98086.34;;;13.99;100.00
8894;BME280;4483;48.622;9.230;2022-09-01T01:17:54;98081.34;;;13.96;100.00
8894;BME280;4483;48.622;9.230;2022-09-01T01:20:26;98086.59;;;13.95;100.00
8894;BME280;4483;48.622;9.230;2022-09-01T01:23:19;98080.66;;;13.93;100.00
8894;BME280;4483;48.622;9.230;2022-09-01T01:25:51;98083.47;;;13.88;100.00
8894;BME280;4483;48.622;9.230;2022-09-01T01:28:20;98077.69;;;13.83;100.00
8894;BME280;4483;48.622;9.230;2022-09-01T01:30:49;98075.84;;;13.85;100.00
8894;BME280;4483;48.622;9.230;2022-09-01T01:33:17;98091.47;;;13.84;100.00
8894;BME280;4483;48.622;9.230;2022-09-01T01:35:44;98087.09;;;13.84;100.00
8894;BME280;4483;48.622;9.230;2022-09-01T01:38:11;98090.47;;;13.86;100.00
8894;BME280;4483;48.622;9.230;2022-09-01T01:40:39;98088.81;;;13.85;100.00
8894;BME280;4483;48.622;9.230;2022-09-01T01:43:08;98090.63;;;13.83;100.00
8894;BME280;4483;48.622;9.230;2022-09-01T01:45:35;98084.75;;;13.80;100.00
8894;BME280;4483;48.622;9.230;2022-09-01T01:48:02;98095.13;;;13.80;100.00
8894;BME280;4483;48.622;9.230;2022-09-01T01:50:32;98088.28;;;13.79;100.00
8894;BME280;4483;48.622;9.230;2022-09-01T01:53:00;98091.59;;;13.81;100.00
8894;BME280;4483;48.622;9.230;2022-09-01T01:55:28;98088.13;;;13.82;100.00
8894;BME280;4483;48.622;9.230;2022-09-01T01:57:55;98098.47;;;13.82;100.00
8894;BME280;4483;48.622;9.230;2022-09-01T02:00:26;98090.72;;;13.82;100.00
8894;BME280;4483;48.622;9.230;2022-09-01T02:02:54;98092.53;;;13.80;100.00
8894;BME280;4483;48.622;9.230;2022-09-01T02:05:22;98097.03;;;13.76;100.00
8894;BME280;4483;48.622;9.230;2022-09-01T02:07:51;98101.34;;;13.76;100.00
8894;BME280;4483;48.622;9.230;2022-09-01T02:10:22;98098.00;;;13.74;100.00
8894;BME280;4483;48.622;9.230;2022-09-01T02:12:50;98091.25;;;13.71;100.00
8894;BME280;4483;48.622;9.230;2022-09-01T02:15:17;98096.47;;;13.70;100.00
8894;BME280;4483;48.622;9.230;2022-09-01T02:17:45;98100.06;;;13.67;100.00
8894;BME280;4483;48.622;9.230;2022-09-01T02:20:14;98086.50;;;13.62;100.00
8894;BME280;4483;48.622;9.230;2022-09-01T02:22:42;98090.84;;;13.62;100.00
8894;BME280;4483;48.622;9.230;2022-09-01T02:25:11;98086.72;;;13.58;100.00
8894;BME280;4483;48.622;9.230;2022-09-01T02:27:41;98089.59;;;13.52;100.00
8894;BME280;4483;48.622;9.230;2022-09-01T02:30:09;98086.41;;;13.47;100.00
8894;BME280;4483;48.622;9.230;2022-09-01T02:32:37;98085.63;;;13.45;100.00
8894;BME280;4483;48.622;9.230;2022-09-01T02:35:08;98080.75;;;13.39;100.00
8894;BME280;4483;48.622;9.230;2022-09-01T02:37:37;98078.47;;;13.33;100.00
8894;BME280;4483;48.622;9.230;2022-09-01T02:40:06;98072.72;;;13.26;100.00
8894;BME280;4483;48.622;9.230;2022-09-01T02:42:36;98075.63;;;13.20;100.00
8894;BME280;4483;48.622;9.230;2022-09-01T02:45:05;98074.94;;;13.17;100.00
8894;BME280;4483;48.622;9.230;2022-09-01T02:47:42;98082.81;;;13.13;100.00
8894;BME280;4483;48.622;9.230;2022-09-01T02:50:13;98074.28;;;13.11;100.00
8894;BME280;4483;48.622;9.230;2022-09-01T02:52:42;98081.94;;;13.15;100.00
8894;BME280;4483;48.622;9.230;2022-09-01T02:55:09;98081.25;;;13.11;100.00
8894;BME280;4483;48.622;9.230;2022-09-01T02:57:37;98075.50;;;13.04;100.00
8894;BME280;4483;48.622;9.230;2022-09-01T03:00:05;98084.78;;;13.08;100.00
8894;BME280;4483;48.622;9.230;2022-09-01T03:02:46;98076.19;;;13.08;100.00
8894;BME280;4483;48.622;9.230;2022-09-01T03:05:14;98076.09;;;13.09;100.00
8894;BME280;4483;48.622;9.230;2022-09-01T03:07:53;98081.97;;;13.13;100.00
8894;BME280;4483;48.622;9.230;2022-09-01T03:10:26;98077.66;;;13.13;100.00
8894;BME280;4483;48.622;9.230;2022-09-01T03:12:58;98083.69;;;13.14;100.00
8894;BME280;4483;48.622;9.230;2022-09-01T03:15:26;98076.97;;;13.10;100.00
8894;BME280;4483;48.622;9.230;2022-09-01T03:17:53;98074.44;;;13.08;100.00
8894;BME280;4483;48.622;9.230;2022-09-01T03:20:22;98067.59;;;13.07;100.00
8894;BME280;4483;48.622;9.230;2022-09-01T03:22:48;98069.28;;;13.08;100.00
8894;BME280;4483;48.622;9.230;2022-09-01T03:25:17;98073.47;;;13.11;100.00
8894;BME280;4483;48.622;9.230;2022-09-01T03:27:44;98076.00;;;13.13;100.00
8894;BME280;4483;48.622;9.230;2022-09-01T03:30:12;98074.28;;;13.11;100.00
8894;BME280;4483;48.622;9.230;2022-09-01T03:32:39;98071.88;;;13.08;100.00
8894;BME280;4483;48.622;9.230;2022-09-01T03:35:07;98077.03;;;13.08;100.00
8894;BME280;4483;48.622;9.230;2022-09-01T03:37:35;98080.47;;;13.09;100.00
8894;BME280;4483;48.622;9.230;2022-09-01T03:40:05;98081.25;;;13.11;100.00
8894;BME280;4483;48.622;9.230;2022-09-01T03:42:33;98079.47;;;13.11;100.00
8894;BME280;4483;48.622;9.230;2022-09-01T03:45:01;98082.97;;;13.10;100.00
8894;BME280;4483;48.622;9.230;2022-09-01T03:47:33;98086.63;;;13.06;100.00
8894;BME280;4483;48.622;9.230;2022-09-01T03:50:04;98080.59;;;13.06;100.00
8894;BME280;4483;48.622;9.230;2022-09-01T03:52:31;98081.44;;;13.06;100.00
8894;BME280;4483;48.622;9.230;2022-09-01T03:54:59;98082.41;;;13.04;100.00
8894;BME280;4483;48.622;9.230;2022-09-01T03:57:26;98073.91;;;13.00;100.00
8894;BME280;4483;48.622;9.230;2022-09-01T03:59:54;98080.09;;;12.98;100.00
8894;BME280;4483;48.622;9.230;2022-09-01T04:02:21;98075.91;;;12.95;100.00
8894;BME280;4483;48.622;9.230;2022-09-01T04:04:47;98079.31;;;12.96;100.00
8894;BME280;4483;48.622;9.230;2022-09-01T04:07:14;98080.09;;;12.98;100.00
8894;BME280;4483;48.622;9.230;2022-09-01T04:09:41;98077.63;;;12.95;100.00
8894;BME280;4483;48.622;9.230;2022-09-01T04:12:09;98080.19;;;12.96;100.00
8894;BME280;4483;48.622;9.230;2022-09-01T04:14:40;98079.44;;;12.93;100.00
8894;BME280;4483;48.622;9.230;2022-09-01T04:17:06;98076.81;;;12.94;100.00
8894;BME280;4483;48.622;9.230;2022-09-01T04:19:51;98070.88;;;12.92;100.00
8894;BME280;4483;48.622;9.230;2022-09-01T04:22:17;98069.81;;;12.96;100.00
8894;BME280;4483;48.622;9.230;2022-09-01T04:24:45;98073.22;;;12.97;100.00
8894;BME280;4483;48.622;9.230;2022-09-01T04:27:14;98071.41;;;12.99;100.00
8894;BME280;4483;48.622;9.230;2022-09-01T04:29:42;98070.44;;;13.01;100.00
8894;BME280;4483;48.622;9.230;2022-09-01T04:32:11;98073.84;;;13.02;100.00
8894;BME280;4483;48.622;9.230;2022-09-01T04:34:38;98073.84;;;13.02;100.00
8894;BME280;4483;48.622;9.230;2022-09-01T04:37:10;98078.00;;;13.06;100.00
8894;BME280;4483;48.622;9.230;2022-09-01T04:39:37;98077.94;;;13.07;100.00
8894;BME280;4483;48.622;9.230;2022-09-01T04:42:05;98073.75;;;13.05;100.00
8894;BME280;4483;48.622;9.230;2022-09-01T04:44:35;98076.09;;;13.09;100.00
8894;BME280;4483;48.622;9.230;2022-09-01T04:47:02;98074.22;;;13.13;100.00
8894;BME280;4483;48.622;9.230;2022-09-01T04:49:35;98069.00;;;13.15;100.00
8894;BME280;4483;48.622;9.230;2022-09-01T04:52:02;98066.34;;;13.16;100.00
8894;BME280;4483;48.622;9.230;2022-09-01T04:54:29;98067.03;;;13.20;100.00
8894;BME280;4483;48.622;9.230;2022-09-01T04:56:57;98061.84;;;13.20;100.00
8894;BME280;4483;48.622;9.230;2022-09-01T04:59:24;98073.16;;;13.17;100.00
8894;BME280;4483;48.622;9.230;2022-09-01T05:01:55;98057.88;;;13.13;100.00
8894;BME280;4483;48.622;9.230;2022-09-01T05:04:27;98064.50;;;13.18;100.00
8894;BME280;4483;48.622;9.230;2022-09-01T05:06:57;98067.91;;;13.19;100.00
8894;BME280;4483;48.622;9.230;2022-09-01T05:09:26;98076.44;;;13.21;100.00
8894;BME280;4483;48.622;9.230;2022-09-01T05:11:53;98077.81;;;13.28;100.00
8894;BME280;4483;48.622;9.230;2022-09-01T05:14:21;98078.16;;;13.39;100.00
8894;BME280;4483;48.622;9.230;2022-09-01T05:16:48;98078.63;;;13.47;100.00
8894;BME280;4483;48.622;9.230;2022-09-01T05:19:17;98076.38;;;13.58;100.00
8894;BME280;4483;48.622;9.230;2022-09-01T05:21:46;98082.03;;;13.66;100.00
8894;BME280;4483;48.622;9.230;2022-09-01T05:24:16;98086.13;;;13.70;100.00
8894;BME280;4483;48.622;9.230;2022-09-01T05:26:44;98081.69;;;13.72;100.00
8894;BME280;4483;48.622;9.230;2022-09-01T05:29:12;98079.78;;;13.75;100.00
8894;BME280;4483;48.622;9.230;2022-09-01T05:31:43;98076.38;;;13.75;100.00
8894;BME280;4483;48.622;9.230;2022-09-01T05:34:10;98080.56;;;13.77;100.00
8894;BME280;4483;48.622;9.230;2022-09-01T05:36:41;98071.22;;;13.75;100.00
8894;BME280;4483;48.622;9.230;2022-09-01T05:39:09;98072.88;;;13.76;100.00
8894;BME280;4483;48.622;9.230;2022-09-01T05:41:36;98074.63;;;13.75;100.00
8894;BME280;4483;48.622;9.230;2022-09-01T05:44:06;98073.16;;;13.70;100.00
8894;BME280;4483;48.622;9.230;2022-09-01T05:46:33;98077.66;;;13.66;100.00
8894;BME280;4483;48.622;9.230;2022-09-01T05:49:02;98076.28;;;13.59;100.00
8894;BME280;4483;48.622;9.230;2022-09-01T05:51:32;98074.84;;;13.54;100.00
8894;BME280;4483;48.622;9.230;2022-09-01T05:54:02;98082.31;;;13.60;100.00
8894;BME280;4483;48.622;9.230;2022-09-01T05:56:32;98075.16;;;13.65;100.00
8894;BME280;4483;48.622;9.230;2022-09-01T05:58:59;98077.53;;;13.69;100.00
8894;BME280;4483;48.622;9.230;2022-09-01T06:01:27;98075.47;;;13.76;100.00
8894;BME280;4483;48.622;9.230;2022-09-01T06:03:57;98076.91;;;13.81;100.00
8894;BME280;4483;48.622;9.230;2022-09-01T06:06:26;98065.41;;;13.87;100.00
8894;BME280;4483;48.622;9.230;2022-09-01T06:08:53;98071.06;;;13.95;100.00
8894;BME280;4483;48.622;9.230;2022-09-01T06:11:25;98074.84;;;14.05;100.00
8894;BME280;4483;48.622;9.230;2022-09-01T06:13:57;98075.13;;;14.16;100.00
8894;BME280;4483;48.622;9.230;2022-09-01T06:16:24;98064.94;;;14.30;100.00
8894;BME280;4483;48.622;9.230;2022-09-01T06:18:53;98065.97;;;14.43;100.00
8894;BME280;4483;48.622;9.230;2022-09-01T06:21:22;98063.06;;;14.49;100.00
8894;BME280;4483;48.622;9.230;2022-09-01T06:23:50;98068.06;;;14.52;100.00
8894;BME280;4483;48.622;9.230;2022-09-01T06:26:19;98068.81;;;14.54;100.00
8894;BME280;4483;48.622;9.230;2022-09-01T06:28:49;98065.03;;;14.61;100.00
8894;BME280;4483;48.622;9.230;2022-09-01T06:31:18;98071.19;;;14.74;100.00
8894;BME280;4483;48.622;9.230;2022-09-01T06:33:48;98063.69;;;14.85;100.00
8894;BME280;4483;48.622;9.230;2022-09-01T06:36:15;98071.47;;;15.01;100.00
8894;BME280;4483;48.622;9.230;2022-09-01T06:38:44;98073.41;;;15.13;100.00
8894;BME280;4483;48.622;9.230;2022-09-01T06:41:11;98074.16;;;15.31;100.00
8894;BME280;4483;48.622;9.230;2022-09-01T06:43:38;98069.75;;;15.92;100.00
8894;BME280;4483;48.622;9.230;2022-09-01T06:46:07;98069.88;;;16.62;100.00
8894;BME280;4483;48.622;9.230;2022-09-01T06:48:35;98061.47;;;17.26;100.00
8894;BME280;4483;48.622;9.230;2022-09-01T06:51:04;98065.47;;;17.58;100.00
8894;BME280;4483;48.622;9.230;2022-09-01T06:53:34;98064.41;;;17.48;99.82
8894;BME280;4483;48.622;9.230;2022-09-01T06:56:01;98060.47;;;17.29;99.23
8894;BME280;4483;48.622;9.230;2022-09-01T06:58:28;98046.22;;;16.93;99.15
8894;BME280;4483;48.622;9.230;2022-09-01T07:00:55;98068.00;;;16.78;99.64
8894;BME280;4483;48.622;9.230;2022-09-01T07:03:24;98066.31;;;16.63;100.00
8894;BME280;4483;48.622;9.230;2022-09-01T07:05:51;98073.28;;;16.63;100.00
8894;BME280;4483;48.622;9.230;2022-09-01T07:08:18;98069.41;;;16.70;100.00
8894;BME280;4483;48.622;9.230;2022-09-01T07:10:48;98071.34;;;16.80;100.00
8894;BME280;4483;48.622;9.230;2022-09-01T07:13:17;98065.56;;;16.89;100.00
8894;BME280;4483;48.622;9.230;2022-09-01T07:15:49;98078.00;;;16.98;100.00
8894;BME280;4483;48.622;9.230;2022-09-01T07:18:17;98071.78;;;17.01;100.00
8894;BME280;4483;48.622;9.230;2022-09-01T07:20:47;98073.81;;;17.10;100.00
8894;BME280;4483;48.622;9.230;2022-09-01T07:23:16;98075.72;;;17.21;100.00
8894;BME280;4483;48.622;9.230;2022-09-01T07:25:46;98084.91;;;17.26;100.00
8894;BME280;4483;48.622;9.230;2022-09-01T07:28:14;98081.81;;;17.34;100.00
8894;BME280;4483;48.622;9.230;2022-09-01T07:30:42;98081.22;;;17.43;100.00
8894;BME280;4483;48.622;9.230;2022-09-01T07:33:10;98075.56;;;17.50;100.00
8894;BME280;4483;48.622;9.230;2022-09-01T07:35:38;98085.63;;;17.69;100.00
8894;BME280;4483;48.622;9.230;2022-09-01T07:38:07;98085.25;;;17.87;100.00
8894;BME280;4483;48.622;9.230;2022-09-01T07:40:34;98086.66;;;18.05;100.00
8894;BME280;4483;48.622;9.230;2022-09-01T07:43:04;98088.09;;;18.22;99.27
8894;BME280;4483;48.622;9.230;2022-09-01T07:45:34;98082.19;;;18.33;98.72
8894;BME280;4483;48.622;9.230;2022-09-01T07:48:04;98092.31;;;18.50;98.58
8894;BME280;4483;48.622;9.230;2022-09-01T07:50:32;98084.06;;;18.68;97.95
8894;BME280;4483;48.622;9.230;2022-09-01T07:52:59;98089.78;;;18.98;97.46
8894;BME280;4483;48.622;9.230;2022-09-01T07:55:27;98092.31;;;19.36;96.29
8894;BME280;4483;48.622;9.230;2022-09-01T07:57:54;98092.25;;;19.72;94.67
8894;BME280;4483;48.622;9.230;2022-09-01T08:00:22;98088.09;;;20.04;93.42
8894;BME280;4483;48.622;9.230;2022-09-01T08:02:49;98090.31;;;20.33;92.32
8894;BME280;4483;48.622;9.230;2022-09-01T08:05:17;98089.03;;;20.60;90.84
8894;BME280;4483;48.622;9.230;2022-09-01T08:07:47;98092.38;;;20.73;89.03
8894;BME280;4483;48.622;9.230;2022-09-01T08:10:15;98085.84;;;20.79;88.83
8894;BME280;4483;48.622;9.230;2022-09-01T08:12:43;98092.16;;;20.76;88.31
8894;BME280;4483;48.622;9.230;2022-09-01T08:15:11;98090.59;;;20.74;88.00
8894;BME280;4483;48.622;9.230;2022-09-01T08:17:38;98097.16;;;20.79;87.96
8894;BME280;4483;48.622;9.230;2022-09-01T08:20:05;98092.63;;;20.81;86.92
8894;BME280;4483;48.622;9.230;2022-09-01T08:22:33;98084.19;;;20.67;83.85
8894;BME280;4483;48.622;9.230;2022-09-01T08:25:01;98088.09;;;20.61;83.79
8894;BME280;4483;48.622;9.230;2022-09-01T08:27:30;98091.44;;;20.52;82.80
8894;BME280;4483;48.622;9.230;2022-09-01T08:29:58;98094.19;;;20.62;82.42
8894;BME280;4483;48.622;9.230;2022-09-01T08:32:25;98097.63;;;20.73;79.49
8894;BME280;4483;48.622;9.230;2022-09-01T08:34:52;98098.72;;;20.71;77.39
8894;BME280;4483;48.622;9.230;2022-09-01T08:37:19;98104.03;;;20.80;77.09
8894;BME280;4483;48.622;9.230;2022-09-01T08:39:45;98106.44;;;20.94;77.68
8894;BME280;4483;48.622;9.230;2022-09-01T08:42:20;98102.53;;;21.11;77.00
8894;BME280;4483;48.622;9.230;2022-09-01T08:44:56;98102.66;;;21.10;75.45
8894;BME280;4483;48.622;9.230;2022-09-01T08:47:26;98098.22;;;21.10;73.72
8894;BME280;4483;48.622;9.230;2022-09-01T08:49:52;98105.03;;;21.13;73.83
8894;BME280;4483;48.622;9.230;2022-09-01T08:52:25;98107.19;;;21.19;73.60
8894;BME280;4483;48.622;9.230;2022-09-01T08:54:57;98111.19;;;21.34;73.77
8894;BME280;4483;48.622;9.230;2022-09-01T08:57:31;98112.00;;;21.45;73.35
8894;BME280;4483;48.622;9.230;2022-09-01T08:59:58;98102.09;;;21.49;71.85
8894;BME280;4483;48.622;9.230;2022-09-01T09:02:35;98102.31;;;21.57;72.33
8894;BME280;4483;48.622;9.230;2022-09-01T09:05:07;98108.19;;;21.49;69.82
8894;BME280;4483;48.622;9.230;2022-09-01T09:07:54;98109.13;;;21.48;69.78
8894;BME280;4483;48.622;9.230;2022-09-01T09:10:25;98115.00;;;21.72;69.82
8894;BME280;4483;48.622;9.230;2022-09-01T09:13:03;98109.22;;;22.01;67.96
8894;BME280;4483;48.622;9.230;2022-09-01T09:15:39;98098.41;;;22.35;64.80
8894;BME280;4483;48.622;9.230;2022-09-01T09:18:15;98100.84;;;23.38;62.62
8894;BME280;4483;48.622;9.230;2022-09-01T09:20:45;98100.63;;;23.79;61.02
8894;BME280;4483;48.622;9.230;2022-09-01T09:23:20;98103.28;;;23.99;58.80
8894;BME280;4483;48.622;9.230;2022-09-01T09:25:49;98093.88;;;24.15;57.93
8894;BME280;4483;48.622;9.230;2022-09-01T09:28:16;98107.88;;;24.06;58.11
8894;BME280;4483;48.622;9.230;2022-09-01T09:30:43;98094.69;;;24.16;57.92
8894;BME280;4483;48.622;9.230;2022-09-01T09:33:35;98092.28;;;24.97;56.83
8894;BME280;4483;48.622;9.230;2022-09-01T09:36:17;98094.72;;;24.81;54.75
8894;BME280;4483;48.622;9.230;2022-09-01T09:38:44;98101.16;;;24.40;55.73
8894;BME280;4483;48.622;9.230;2022-09-01T09:41:16;98110.31;;;23.98;56.43
8894;BME280;4483;48.622;9.230;2022-09-01T09:43:46;98101.63;;;24.17;56.52
8894;BME280;4483;48.622;9.230;2022-09-01T09:46:22;98098.56;;;24.21;56.08
8894;BME280;4483;48.622;9.230;2022-09-01T09:49:09;98091.78;;;24.28;56.18
8894;BME280;4483;48.622;9.230;2022-09-01T09:51:38;98097.31;;;24.16;55.76
8894;BME280;4483;48.622;9.230;2022-09-01T09:54:15;98096.47;;;23.96;55.85
8894;BME280;4483;48.622;9.230;2022-09-01T09:56:43;98093.03;;;23.86;56.66
8894;BME280;4483;48.622;9.230;2022-09-01T09:59:31;98100.50;;;23.71;56.34
8894;BME280;4483;48.622;9.230;2022-09-01T10:02:06;98095.59;;;23.48;57.10
8894;BME280;4483;48.622;9.230;2022-09-01T10:04:41;98093.88;;;23.28;57.83
8894;BME280;4483;48.622;9.230;2022-09-01T10:07:27;98083.44;;;23.17;58.15
8894;BME280;4483;48.622;9.230;2022-09-01T10:09:57;98094.78;;;23.08;57.99
8894;BME280;4483;48.622;9.230;2022-09-01T10:12:25;98095.22;;;23.13;57.65
8894;BME280;4483;48.622;9.230;2022-09-01T10:14:56;98095.75;;;23.46;57.82
8894;BME280;4483;48.622;9.230;2022-09-01T10:17:28;98090.34;;;23.48;56.61
8894;BME280;4483;48.622;9.230;2022-09-01T10:19:59;98093.84;;;23.67;55.72
8894;BME280;4483;48.622;9.230;2022-09-01T10:22:31;98099.94;;;23.97;54.90
8894;BME280;4483;48.622;9.230;2022-09-01T10:24:59;98093.25;;;24.50;54.63
8894;BME280;4483;48.622;9.230;2022-09-01T10:27:29;98087.53;;;24.64;54.20
8894;BME280;4483;48.622;9.230;2022-09-01T10:30:03;98081.69;;;24.70;53.80
8894;BME280;4483;48.622;9.230;2022-09-01T10:32:33;98091.19;;;25.00;52.36
8894;BME280;4483;48.622;9.230;2022-09-01T10:35:05;98085.75;;;25.01;51.45
8894;BME280;4483;48.622;9.230;2022-09-01T10:37:33;98082.03;;;25.21;52.02
8894;BME280;4483;48.622;9.230;2022-09-01T10:40:15;98076.06;;;25.19;51.57
8894;BME280;4483;48.622;9.230;2022-09-01T10:42:44;98075.63;;;25.24;51.32
8894;BME280;4483;48.622;9.230;2022-09-01T10:45:28;98078.75;;;25.10;50.49
8894;BME280;4483;48.622;9.230;2022-09-01T10:47:55;98073.78;;;24.70;50.95
8894;BME280;4483;48.622;9.230;2022-09-01T10:50:27;98073.00;;;24.50;52.07
8894;BME280;4483;48.622;9.230;2022-09-01T10:53:02;98080.41;;;24.37;52.10
8894;BME280;4483;48.622;9.230;2022-09-01T10:55:45;98079.03;;;24.24;53.69
8894;BME280;4483;48.622;9.230;2022-09-01T10:58:29;98077.22;;;24.24;53.20
8894;BME280;4483;48.622;9.230;2022-09-01T11:01:00;98073.75;;;24.33;53.71
8894;BME280;4483;48.622;9.230;2022-09-01T11:03:48;98063.66;;;24.75;53.39
8894;BME280;4483;48.622;9.230;2022-09-01T11:09:27;98070.81;;;25.19;51.29
8894;BME280;4483;48.622;9.230;2022-09-01T11:14:49;98068.09;;;25.02;50.81
8894;BME280;4483;48.622;9.230;2022-09-01T11:17:20;98057.47;;;24.94;50.94
8894;BME280;4483;48.622;9.230;2022-09-01T11:19:55;98052.94;;;25.93;49.54
8894;BME280;4483;48.622;9.230;2022-09-01T11:22:30;98058.06;;;26.89;47.64
8894;BME280;4483;48.622;9.230;2022-09-01T11:28:44;98046.16;;;27.27;45.82
8894;BME280;4483;48.622;9.230;2022-09-01T11:31:24;98052.53;;;27.50;44.25
8894;BME280;4483;48.622;9.230;2022-09-01T11:34:12;98044.31;;;27.93;43.90
8894;BME280;4483;48.622;9.230;2022-09-01T11:36:55;98052.09;;;28.11;43.23
8894;BME280;4483;48.622;9.230;2022-09-01T11:39:39;98042.13;;;28.53;42.49
8894;BME280;4483;48.622;9.230;2022-09-01T11:42:10;98028.94;;;28.92;41.45
8894;BME280;4483;48.622;9.230;2022-09-01T11:44:46;98023.88;;;29.13;39.87
8894;BME280;4483;48.622;9.230;2022-09-01T11:47:17;98030.34;;;29.41;40.00
8894;BME280;4483;48.622;9.230;2022-09-01T11:49:51;98021.13;;;29.29;39.59
8894;BME280;4483;48.622;9.230;2022-09-01T11:52:21;98026.28;;;29.53;38.18
8894;BME280;4483;48.622;9.230;2022-09-01T11:54:48;98025.22;;;29.70;38.20
8894;BME280;4483;48.622;9.230;2022-09-01T11:57:18;98026.28;;;29.53;37.81
8894;BME280;4483;48.622;9.230;2022-09-01T11:59:46;98033.81;;;29.03;38.67
8894;BME280;4483;48.622;9.230;2022-09-01T12:02:17;98021.75;;;28.53;39.58
8894;BME280;4483;48.622;9.230;2022-09-01T12:04:44;98029.22;;;28.26;39.90
8894;BME280;4483;48.622;9.230;2022-09-01T12:07:13;98032.72;;;28.18;39.93
8894;BME280;4483;48.622;9.230;2022-09-01T12:09:49;98029.00;;;28.67;40.24
8894;BME280;4483;48.622;9.230;2022-09-01T12:12:28;98034.28;;;29.22;39.55
8894;BME280;4483;48.622;9.230;2022-09-01T12:14:57;98024.88;;;28.49;40.52
8894;BME280;4483;48.622;9.230;2022-09-01T12:17:24;98028.41;;;27.93;41.72
8894;BME280;4483;48.622;9.230;2022-09-01T12:19:51;98027.69;;;27.51;43.05
8894;BME280;4483;48.622;9.230;2022-09-01T12:22:20;98017.94;;;27.35;43.20
8894;BME280;4483;48.622;9.230;2022-09-01T12:24:49;98019.13;;;27.07;44.19
8894;BME280;4483;48.622;9.230;2022-09-01T12:27:16;98021.28;;;27.04;44.06
8894;BME280;4483;48.622;9.230;2022-09-01T12:29:43;98024.81;;;26.78;44.92
8894;BME280;4483;48.622;9.230;2022-09-01T12:32:12;98018.13;;;27.00;45.30
8894;BME280;4483;48.622;9.230;2022-09-01T12:34:41;98017.94;;;27.51;43.69
8894;BME280;4483;48.622;9.230;2022-09-01T12:37:10;98003.94;;;28.07;43.38
8894;BME280;4483;48.622;9.230;2022-09-01T12:39:39;98004.06;;;28.85;42.65
8894;BME280;4483;48.622;9.230;2022-09-01T12:42:21;98002.28;;;29.46;41.03
8894;BME280;4483;48.622;9.230;2022-09-01T12:44:51;98002.50;;;29.59;39.98
8894;BME280;4483;48.622;9.230;2022-09-01T12:47:48;97994.66;;;29.66;39.91
8894;BME280;4483;48.622;9.230;2022-09-01T12:50:41;97997.66;;;30.08;39.51
8894;BME280;4483;48.622;9.230;2022-09-01T12:53:24;97988.75;;;30.01;37.39
8894;BME280;4483;48.622;9.230;2022-09-01T12:56:20;97992.19;;;29.87;38.00
8894;BME280;4483;48.622;9.230;2022-09-01T12:58:50;97999.13;;;29.20;39.00
8894;BME280;4483;48.622;9.230;2022-09-01T13:01:31;98001.22;;;29.25;38.89
8894;BME280;4483;48.622;9.230;2022-09-01T13:04:15;97992.00;;;29.43;39.02
8894;BME280;4483;48.622;9.230;2022-09-01T13:06:49;97994.53;;;29.37;39.32
8894;BME280;4483;48.622;9.230;2022-09-01T13:09:16;97992.41;;;29.32;38.45
8894;BME280;4483;48.622;9.230;2022-09-01T13:11:43;97998.28;;;29.20;38.84
8894;BME280;4483;48.622;9.230;2022-09-01T13:14:12;97994.53;;;29.06;39.37
8894;BME280;4483;48.622;9.230;2022-09-01T13:16:39;97994.75;;;28.34;41.08
8894;BME280;4483;48.622;9.230;2022-09-01T13:19:06;98003.38;;;28.28;41.37
8894;BME280;4483;48.622;9.230;2022-09-01T13:21:35;98005.91;;;27.97;41.43
8894;BME280;4483;48.622;9.230;2022-09-01T13:24:04;98000.72;;;27.47;42.01
8894;BME280;4483;48.622;9.230;2022-09-01T13:26:31;97997.75;;;26.93;43.27
8894;BME280;4483;48.622;9.230;2022-09-01T13:28:58;97998.22;;;26.80;44.12
8894;BME280;4483;48.622;9.230;2022-09-01T13:31:25;97997.16;;;26.39;44.53
8894;BME280;4483;48.622;9.230;2022-09-01T13:33:53;97985.63;;;26.74;44.74
8894;BME280;4483;48.622;9.230;2022-09-01T13:36:20;97985.88;;;26.55;44.55
8894;BME280;4483;48.622;9.230;2022-09-01T13:38:48;97987.59;;;26.38;45.08
8894;BME280;4483;48.622;9.230;2022-09-01T13:41:15;97992.56;;;26.41;45.58